Time;durP1;ratioP1;P1;durP2;ratioP2;P2;SDS_P1;SDS_P2;PMS_P1;PMS_P2;Temp;Humidity;BMP_temperature;BMP_pressure;BME280_temperature;BME280_humidity;BME280_pressure;Samples;Min_cycle;Max_cycle;Signal;HPM_P1;HPM_P2
2022/05/03 00:03:00;;;;;;;3.03;2.70;;;;;;;12.39;60.25;94299.16;5063594;28;20441;-73
2022/05/03 00:05:29;;;;;;;3.60;3.30;;;;;;;11.85;62.11;94299.47;5043862;28;20425;-74
2022/05/03 00:08:23;;;;;;;2.90;2.70;;;;;;;12.14;61.48;94299.13;5064053;28;20413;-73
2022/05/03 00:11:06;;;;;;;2.27;2.17;;;;;;;11.83;62.00;94304.13;5050589;28;20504;-74
2022/05/03 00:14:04;;;;;;;3.03;2.80;;;;;;;11.73;61.74;94299.34;5064613;28;20467;-74
2022/05/03 00:16:29;;;;;;;4.60;4.20;;;;;;;11.91;61.51;94298.69;5063882;28;20538;-73
2022/05/03 00:18:55;;;;;;;3.83;3.43;;;;;;;12.33;60.74;94297.38;5064360;28;20420;-74
2022/05/03 00:21:21;;;;;;;4.27;3.97;;;;;;;12.25;61.32;94293.19;5058749;28;20207;-73
2022/05/03 00:23:47;;;;;;;4.07;3.67;;;;;;;12.22;61.41;94297.06;5060454;28;20178;-73
2022/05/03 00:26:13;;;;;;;3.90;3.57;;;;;;;12.24;61.51;94292.41;5064315;28;20912;-73
2022/05/03 00:28:40;;;;;;;5.30;4.90;;;;;;;12.32;62.10;94301.84;5058488;28;20418;-74
2022/05/03 00:31:06;;;;;;;5.37;4.93;;;;;;;11.94;63.15;94291.41;5061169;28;20433;-74
2022/05/03 00:33:35;;;;;;;4.00;3.70;;;;;;;12.12;62.13;94299.34;5059600;28;20467;-74
2022/05/03 00:36:00;;;;;;;4.67;4.47;;;;;;;12.06;62.86;94293.13;5077531;28;20436;-74
2022/05/03 00:38:26;;;;;;;5.20;4.67;;;;;;;12.36;62.10;94289.88;5064476;28;20800;-73
2022/05/03 00:40:56;;;;;;;5.33;4.93;;;;;;;12.69;60.88;94289.63;5064867;28;20209;-74
2022/05/03 00:43:27;;;;;;;4.30;4.00;;;;;;;12.65;61.59;94298.13;5065194;28;20197;-74
2022/05/03 00:46:02;;;;;;;7.63;4.97;;;;;;;12.68;61.47;94297.72;5065969;28;20428;-74
2022/05/03 00:48:57;;;;;;;4.43;4.13;;;;;;;12.82;60.96;94303.63;5069531;28;20432;-74
2022/05/03 00:51:36;;;;;;;4.20;3.80;;;;;;;12.56;61.44;94295.00;5055935;28;20460;-75
2022/05/03 00:54:35;;;;;;;4.70;4.40;;;;;;;12.37;62.43;94299.38;5054182;28;20431;-75
2022/05/03 00:57:25;;;;;;;4.87;2.60;;;;;;;12.04;62.41;94291.72;5064059;28;20416;-76
2022/05/03 01:00:08;;;;;;;3.87;3.57;;;;;;;12.15;62.84;94298.91;5062275;28;20928;-74
2022/05/03 01:02:57;;;;;;;4.40;4.10;;;;;;;12.05;62.94;94288.91;5055034;28;20793;-75
2022/05/03 01:05:47;;;;;;;3.90;3.70;;;;;;;12.35;62.27;94292.72;5061517;28;21006;-74
2022/05/03 01:08:28;;;;;;;4.97;4.50;;;;;;;12.14;62.74;94284.22;5062381;28;20980;-75
2022/05/03 01:11:05;;;;;;;4.50;4.20;;;;;;;12.17;62.97;94286.41;5071478;28;20448;-74
2022/05/03 01:13:36;;;;;;;4.40;4.03;;;;;;;12.25;62.19;94287.97;5058363;28;20477;-74
2022/05/03 01:16:24;;;;;;;4.40;4.10;;;;;;;12.21;62.79;94282.31;5060554;28;20433;-74
2022/05/03 01:18:56;;;;;;;4.53;4.23;;;;;;;12.05;63.43;94283.66;5063631;28;20421;-74
2022/05/03 01:21:38;;;;;;;4.73;4.33;;;;;;;12.12;61.78;94288.84;5059744;28;20460;-74
2022/05/03 01:24:06;;;;;;;1.77;1.67;;;;;;;11.97;61.93;94283.94;5058863;28;20410;-74
2022/05/03 01:26:56;;;;;;;3.37;2.90;;;;;;;12.00;62.02;94277.44;5060076;28;20424;-74
2022/05/03 01:29:27;;;;;;;2.60;2.40;;;;;;;11.70;62.38;94280.59;5062352;28;20515;-74
2022/05/03 01:32:18;;;;;;;2.53;2.33;;;;;;;11.61;62.06;94272.19;5060884;28;20448;-74
2022/05/03 01:34:46;;;;;;;3.07;2.97;;;;;;;11.72;61.82;94273.34;5100690;28;20428;-74
2022/05/03 01:37:30;;;;;;;1.87;1.77;;;;;;;11.77;61.72;94273.50;5058378;28;20437;-75
2022/05/03 01:40:01;;;;;;;3.57;3.37;;;;;;;11.88;61.65;94262.34;5063820;28;20473;-74
2022/05/03 01:42:44;;;;;;;3.10;3.00;;;;;;;12.06;61.05;94259.03;5061845;28;20437;-73
2022/05/03 01:45:11;;;;;;;3.10;2.90;;;;;;;11.91;61.94;94251.50;5067447;28;20427;-74
2022/05/03 01:47:57;;;;;;;3.60;3.23;;;;;;;11.75;61.73;94256.41;5066969;28;20436;-74
2022/05/03 01:50:42;;;;;;;3.70;3.40;;;;;;;11.99;61.07;94257.47;5057756;28;20758;-74
2022/05/03 01:53:42;;;;;;;5.13;4.13;;;;;;;11.96;61.85;94255.28;5063798;28;20480;-74
2022/05/03 01:56:29;;;;;;;3.97;3.67;;;;;;;12.07;60.67;94249.34;5063694;28;20427;-74
2022/05/03 01:59:07;;;;;;;3.10;2.90;;;;;;;11.82;61.03;94252.72;5065424;28;20497;-74
2022/05/03 02:01:41;;;;;;;3.50;3.20;;;;;;;11.88;60.93;94256.31;5066242;28;20491;-74
2022/05/03 02:04:30;;;;;;;4.43;4.03;;;;;;;11.89;61.32;94253.53;5065204;28;20421;-74
2022/05/03 02:06:56;;;;;;;7.20;4.20;;;;;;;12.44;60.68;94254.69;5052192;28;20445;-74
2022/05/03 02:09:28;;;;;;;4.40;4.10;;;;;;;12.63;60.98;94255.53;5066666;28;20416;-74
2022/05/03 02:12:07;;;;;;;5.77;5.27;;;;;;;12.27;63.04;94255.25;5060442;28;21752;-74
2022/05/03 02:14:46;;;;;;;5.57;5.10;;;;;;;12.61;61.98;94254.97;5066218;28;20449;-74
2022/05/03 02:17:36;;;;;;;5.27;4.97;;;;;;;12.55;61.35;94250.56;5064276;28;20887;-74
2022/05/03 02:20:27;;;;;;;4.83;4.50;;;;;;;12.53;61.29;94250.00;5063405;28;20457;-74
2022/05/03 02:23:18;;;;;;;6.40;5.90;;;;;;;12.28;62.78;94254.22;5062635;28;20524;-74
2022/05/03 02:26:21;;;;;;;5.97;5.47;;;;;;;12.30;63.22;94254.03;5051397;28;20426;-74
2022/05/03 02:29:16;;;;;;;5.33;4.93;;;;;;;12.11;62.97;94245.28;5063029;28;20460;-74
2022/05/03 02:31:51;;;;;;;5.27;4.87;;;;;;;12.36;61.58;94237.41;5053196;28;20429;-76
2022/05/03 02:34:45;;;;;;;5.07;4.60;;;;;;;12.55;62.39;94245.31;5063534;28;20442;-74
2022/05/03 02:37:28;;;;;;;5.30;4.90;;;;;;;12.48;63.85;94245.38;5064207;28;20448;-74
2022/05/03 02:40:02;;;;;;;5.90;5.40;;;;;;;12.37;63.80;94240.84;5065470;28;20441;-74
2022/05/03 02:42:28;;;;;;;5.13;4.83;;;;;;;12.19;63.47;94237.16;5061601;28;21074;-75
2022/05/03 02:44:56;;;;;;;5.77;5.30;;;;;;;12.12;63.19;94236.38;5056191;28;20424;-74
2022/05/03 02:47:31;;;;;;;5.17;4.73;;;;;;;12.29;61.07;94236.66;5063797;28;20432;-74
2022/05/03 02:50:02;;;;;;;5.73;5.33;;;;;;;12.47;62.26;94230.66;5053162;28;20486;-74
2022/05/03 02:52:35;;;;;;;4.13;3.73;;;;;;;12.40;62.05;94238.59;5070481;28;20457;-74
2022/05/03 02:55:15;;;;;;;4.80;4.40;;;;;;;12.54;61.40;94234.03;5065714;28;20927;-74
2022/05/03 02:57:55;;;;;;;7.50;6.80;;;;;;;12.21;63.77;94239.56;5064761;28;20498;-74
2022/05/03 03:03:31;;;;;;;6.30;5.80;;;;;;;12.18;64.20;94237.34;5051980;28;20407;-74
2022/05/03 03:05:59;;;;;;;6.43;5.60;;;;;;;12.39;63.74;94237.00;5047173;28;20470;-74
2022/05/03 03:08:35;;;;;;;5.90;5.50;;;;;;;12.36;64.39;94241.88;5050405;28;20422;-74
2022/05/03 03:11:03;;;;;;;6.30;5.80;;;;;;;12.25;64.08;94238.09;5056397;28;20433;-74
2022/05/03 03:14:05;;;;;;;6.37;5.90;;;;;;;12.72;62.56;94246.38;5048801;28;20417;-74
2022/05/03 03:16:32;;;;;;;5.80;5.27;;;;;;;12.39;63.32;94236.19;5060641;28;20436;-74
2022/05/03 03:19:02;;;;;;;8.70;6.20;;;;;;;12.45;64.61;94241.38;5066174;28;20485;-74
2022/05/03 03:21:34;;;;;;;7.17;6.57;;;;;;;12.24;64.56;94244.38;5065507;28;20466;-74
2022/05/03 03:24:01;;;;;;;6.97;6.20;;;;;;;12.25;64.72;94231.03;5054784;28;20413;-74
2022/05/03 03:26:29;;;;;;;5.80;5.40;;;;;;;11.99;65.04;94236.50;5066188;28;20439;-75
2022/05/03 03:28:58;;;;;;;10.10;6.17;;;;;;;12.49;64.03;94242.53;5066151;28;20523;-75
2022/05/03 03:31:26;;;;;;;6.53;6.03;;;;;;;12.55;63.78;94240.88;5074639;28;20432;-74
2022/05/03 03:33:54;;;;;;;6.87;6.27;;;;;;;12.12;64.98;94239.00;5065007;28;20445;-75
2022/05/03 03:36:23;;;;;;;6.20;5.60;;;;;;;12.13;64.80;94234.59;5055903;28;21211;-74
2022/05/03 03:38:49;;;;;;;6.17;5.57;;;;;;;12.19;63.83;94242.38;5062585;28;20417;-74
2022/05/03 03:41:15;;;;;;;7.93;6.23;;;;;;;12.27;64.22;94233.44;5064990;28;20480;-74
2022/05/03 03:43:40;;;;;;;6.50;5.90;;;;;;;12.21;63.72;94240.34;5065563;28;20294;-75
2022/05/03 03:46:07;;;;;;;6.67;6.10;;;;;;;12.29;63.29;94242.72;5064887;28;20187;-74
2022/05/03 03:48:33;;;;;;;6.47;5.73;;;;;;;12.11;64.17;94246.09;5065751;28;20206;-74
2022/05/03 03:51:00;;;;;;;5.40;4.90;;;;;;;12.42;62.72;94246.25;5064462;28;20425;-74
2022/05/03 03:53:27;;;;;;;6.00;5.60;;;;;;;11.95;64.65;94251.03;5064421;28;20426;-74
2022/05/03 03:55:53;;;;;;;5.90;5.33;;;;;;;12.32;63.23;94238.06;5064439;28;20436;-74
2022/05/03 03:58:19;;;;;;;6.40;5.90;;;;;;;12.39;63.10;94244.06;5064691;28;20413;-74
2022/05/03 04:00:46;;;;;;;6.20;5.60;;;;;;;12.49;62.50;94247.00;5065595;28;20477;-74
2022/05/03 04:03:11;;;;;;;6.77;5.60;;;;;;;12.22;63.23;94247.22;5059132;28;20205;-75
2022/05/03 04:05:38;;;;;;;6.97;6.47;;;;;;;12.55;62.77;94251.38;5062045;28;20527;-74
2022/05/03 04:08:04;;;;;;;6.63;6.03;;;;;;;12.30;62.73;94254.03;5063427;28;20554;-74
2022/05/03 04:10:29;;;;;;;5.50;5.10;;;;;;;12.43;63.16;94246.03;5063337;28;20420;-74
2022/05/03 04:12:54;;;;;;;5.40;4.90;;;;;;;12.35;63.85;94250.75;5063278;28;20432;-74
2022/05/03 04:15:20;;;;;;;6.57;5.97;;;;;;;12.30;63.31;94254.81;5062400;28;20554;-74
2022/05/03 04:17:45;;;;;;;6.40;5.90;;;;;;;12.53;62.59;94258.66;5063954;28;20187;-74
2022/05/03 04:20:18;;;;;;;6.90;6.37;;;;;;;12.11;63.69;94261.03;5063876;28;20198;-74
2022/05/03 04:22:44;;;;;;;6.30;5.70;;;;;;;12.66;62.64;94263.78;5064762;28;20210;-74
2022/05/03 04:25:10;;;;;;;6.60;6.13;;;;;;;12.52;63.33;94257.06;5063903;28;20419;-74
2022/05/03 04:27:36;;;;;;;7.03;6.43;;;;;;;12.60;62.97;94253.38;5063818;28;20428;-74
2022/05/03 04:30:03;;;;;;;6.70;6.00;;;;;;;12.41;62.70;94260.41;5094980;28;20475;-74
2022/05/03 04:32:29;;;;;;;6.30;5.70;;;;;;;12.36;62.65;94262.84;5060619;28;20273;-74
2022/05/03 04:34:55;;;;;;;6.23;5.83;;;;;;;12.38;62.46;94255.56;5060872;28;20429;-75
2022/05/03 04:37:20;;;;;;;6.20;5.60;;;;;;;12.31;62.49;94268.72;5063757;28;20452;-74
2022/05/03 04:39:46;;;;;;;6.37;5.90;;;;;;;12.37;62.24;94267.06;5064156;28;20757;-74
2022/05/03 04:42:11;;;;;;;6.10;5.50;;;;;;;12.19;63.19;94268.63;5063686;28;20186;-74
2022/05/03 04:44:37;;;;;;;6.63;6.07;;;;;;;12.74;61.20;94265.34;5063321;28;20206;-75
2022/05/03 04:47:03;;;;;;;6.53;6.03;;;;;;;12.49;61.70;94268.00;5061907;28;20272;-74
2022/05/03 04:49:28;;;;;;;5.33;4.83;;;;;;;12.41;61.10;94276.16;5062861;28;20208;-74
2022/05/03 04:51:54;;;;;;;6.37;5.57;;;;;;;12.47;61.27;94275.28;5061458;28;20433;-74
2022/05/03 04:54:20;;;;;;;7.27;5.20;;;;;;;12.30;60.97;94267.94;5060669;28;20194;-74
2022/05/03 04:57:06;;;;;;;5.50;5.00;;;;;;;12.63;60.60;94266.84;5061737;28;20190;-74
2022/05/03 04:59:32;;;;;;;5.77;5.37;;;;;;;12.66;60.66;94276.13;5063420;28;20177;-76
2022/05/03 05:01:57;;;;;;;6.20;5.53;;;;;;;12.61;61.65;94266.25;5063708;28;21004;-74
2022/05/03 05:04:24;;;;;;;5.23;4.73;;;;;;;12.73;61.03;94270.78;5065135;28;20249;-74
2022/05/03 05:06:49;;;;;;;5.30;4.97;;;;;;;12.75;60.86;94271.38;5067754;28;20186;-74
2022/05/03 05:09:15;;;;;;;6.40;5.80;;;;;;;12.91;61.11;94278.69;5067247;28;20431;-74
2022/05/03 05:11:40;;;;;;;6.20;5.70;;;;;;;12.57;61.37;94272.97;5067515;28;20190;-74
2022/05/03 05:14:06;;;;;;;7.63;5.90;;;;;;;12.80;60.94;94274.16;5074421;28;20176;-74
2022/05/03 05:16:31;;;;;;;6.57;5.80;;;;;;;12.64;60.75;94275.53;5066687;28;20187;-74
2022/05/03 05:18:57;;;;;;;6.43;5.90;;;;;;;13.00;60.14;94274.78;5068010;28;20186;-74
2022/05/03 05:21:22;;;;;;;6.90;6.20;;;;;;;13.10;59.75;94274.25;5067353;28;20198;-74
2022/05/03 05:23:48;;;;;;;6.23;5.73;;;;;;;12.74;59.51;94280.28;5061452;28;20209;-74
2022/05/03 05:26:13;;;;;;;5.87;5.27;;;;;;;12.99;60.08;94277.59;5059774;28;20208;-74
2022/05/03 05:28:39;;;;;;;5.83;5.33;;;;;;;12.60;60.82;94275.16;5060333;28;20179;-74
2022/05/03 05:31:04;;;;;;;6.10;5.63;;;;;;;12.84;59.72;94270.91;5064249;28;20198;-73
2022/05/03 05:33:29;;;;;;;5.37;4.97;;;;;;;12.79;59.65;94269.94;5067013;28;20202;-74
2022/05/03 05:35:56;;;;;;;5.50;5.00;;;;;;;12.88;59.09;94279.13;5067407;28;20212;-74
2022/05/03 05:38:21;;;;;;;4.20;3.90;;;;;;;12.96;58.94;94278.84;5066116;28;20175;-74
2022/05/03 05:40:47;;;;;;;5.40;4.83;;;;;;;13.25;57.58;94277.31;5067136;28;20473;-74
2022/05/03 05:43:13;;;;;;;4.60;4.30;;;;;;;12.88;56.31;94281.75;5067749;28;20230;-74
2022/05/03 05:45:39;;;;;;;3.30;2.80;;;;;;;13.17;56.04;94272.38;5067572;28;20420;-74
2022/05/03 05:48:06;;;;;;;6.40;5.13;;;;;;;13.19;56.34;94280.03;5066717;28;20474;-74
2022/05/03 05:50:31;;;;;;;4.40;4.17;;;;;;;13.05;56.46;94282.81;5062961;28;20206;-74
2022/05/03 05:55:42;;;;;;;3.10;2.80;;;;;;;12.83;55.81;94292.91;5066194;28;20209;-74
2022/05/03 05:58:09;;;;;;;3.97;3.57;;;;;;;13.21;54.21;94288.50;5066548;28;20425;-74
2022/05/03 06:00:34;;;;;;;4.40;3.47;;;;;;;13.08;54.64;94289.44;5066230;28;21050;-74
2022/05/03 06:03:00;;;;;;;3.70;3.27;;;;;;;13.36;53.12;94288.97;5066422;28;20452;-74
2022/05/03 06:05:25;;;;;;;5.03;4.63;;;;;;;12.80;55.03;94297.78;5066735;28;20183;-74
2022/05/03 06:07:52;;;;;;;4.40;4.00;;;;;;;13.11;53.22;94296.91;5065103;28;20178;-74
2022/05/03 06:10:18;;;;;;;4.37;4.00;;;;;;;13.74;52.00;94302.88;5066834;28;20181;-74
2022/05/03 06:12:44;;;;;;;3.80;3.50;;;;;;;13.52;52.35;94303.31;5066285;28;20876;-74
2022/05/03 06:15:10;;;;;;;2.97;2.80;;;;;;;13.77;52.47;94297.97;5063914;28;20471;-74
2022/05/03 06:17:36;;;;;;;4.20;3.60;;;;;;;13.39;53.54;94309.56;5066563;28;20171;-74
2022/05/03 06:20:02;;;;;;;4.20;3.80;;;;;;;13.66;51.70;94309.25;5059829;28;20175;-74
2022/05/03 06:22:27;;;;;;;3.40;3.20;;;;;;;13.70;52.03;94314.84;5066879;28;20526;-74
2022/05/03 06:24:53;;;;;;;4.30;3.70;;;;;;;13.64;51.94;94325.22;5053212;28;20213;-74
2022/05/03 06:27:18;;;;;;;4.07;3.30;;;;;;;13.60;52.06;94310.94;5070769;28;20560;-74
2022/05/03 06:29:44;;;;;;;5.60;3.30;;;;;;;13.74;50.62;94321.28;5064961;28;20305;-73
2022/05/03 06:32:13;;;;;;;3.30;3.10;;;;;;;13.52;51.19;94315.66;5067079;28;20178;-74
2022/05/03 06:34:38;;;;;;;3.10;2.90;;;;;;;13.78;52.42;94317.97;5066136;28;20180;-72
2022/05/03 06:37:04;;;;;;;4.10;3.73;;;;;;;14.41;50.75;94329.03;5063628;28;20468;-72
2022/05/03 06:39:30;;;;;;;3.40;3.10;;;;;;;14.83;50.41;94329.00;5063403;28;20178;-72
2022/05/03 06:41:56;;;;;;;7.60;3.67;;;;;;;14.32;51.13;94336.44;5065879;28;20499;-72
2022/05/03 06:44:22;;;;;;;3.57;3.27;;;;;;;14.17;51.45;94334.25;5066206;28;20182;-72
2022/05/03 06:46:49;;;;;;;3.53;3.23;;;;;;;14.07;52.32;94336.59;5064189;28;20212;-72
2022/05/03 06:49:14;;;;;;;3.47;3.23;;;;;;;14.77;50.41;94337.84;5065695;28;20417;-72
2022/05/03 06:51:40;;;;;;;5.33;3.50;;;;;;;14.24;51.18;94342.84;5066353;28;20757;-73
2022/05/03 06:54:05;;;;;;;8.40;3.90;;;;;;;14.61;50.63;94348.00;5058493;28;20205;-72
2022/05/03 06:56:35;;;;;;;3.27;3.07;;;;;;;14.51;51.25;94349.56;5066453;28;20216;-72
2022/05/03 06:59:02;;;;;;;3.27;3.00;;;;;;;14.78;50.18;94342.88;5068292;28;20183;-72
2022/05/03 07:01:28;;;;;;;4.00;3.70;;;;;;;14.46;50.58;94344.97;5062946;28;20557;-72
2022/05/03 07:03:53;;;;;;;3.73;3.53;;;;;;;15.14;49.86;94348.97;5065784;28;20424;-72
2022/05/03 07:06:21;;;;;;;3.90;3.50;;;;;;;15.00;50.38;94345.75;5063235;28;20191;-72
2022/05/03 07:08:46;;;;;;;6.90;3.90;;;;;;;15.15;50.35;94352.41;5062534;28;20269;-72
2022/05/03 07:11:12;;;;;;;4.10;3.70;;;;;;;15.37;48.72;94348.13;5058653;28;20476;-72
2022/05/03 07:13:37;;;;;;;4.10;3.87;;;;;;;14.94;50.00;94349.28;5061240;28;20181;-73
2022/05/03 07:16:03;;;;;;;5.40;5.00;;;;;;;14.97;49.79;94346.22;5064984;28;20188;-73
2022/05/03 07:23:56;;;;;;;4.77;4.20;;;;;;;15.16;50.41;94351.38;5065549;28;20634;-72
2022/05/03 07:26:22;;;;;;;9.30;4.63;;;;;;;15.21;50.52;94343.56;5065120;28;20537;-72
2022/05/03 07:28:49;;;;;;;6.00;4.40;;;;;;;15.32;49.59;94344.59;5063570;28;20225;-72
2022/05/03 07:31:18;;;;;;;5.13;4.73;;;;;;;14.91;51.17;94344.50;5064509;28;20189;-72
2022/05/03 07:33:45;;;;;;;5.83;5.07;;;;;;;15.26;49.49;94351.59;5061530;28;20427;-72
2022/05/03 07:36:11;;;;;;;8.00;6.00;;;;;;;15.03;51.07;94355.03;5065164;28;20452;-72
2022/05/03 07:38:37;;;;;;;5.30;4.07;;;;;;;15.12;51.37;94352.84;5065402;28;20830;-72
2022/05/03 07:41:03;;;;;;;5.37;4.97;;;;;;;14.87;51.24;94353.88;5059406;28;20479;-72
2022/05/03 07:43:29;;;;;;;5.07;4.67;;;;;;;14.90;51.90;94355.25;5062409;28;20479;-72
2022/05/03 07:45:54;;;;;;;4.80;4.40;;;;;;;14.78;52.46;94363.16;5064699;28;20433;-72
2022/05/03 07:48:20;;;;;;;5.23;4.90;;;;;;;14.78;52.36;94368.44;5062045;28;20257;-72
2022/05/03 07:50:46;;;;;;;4.63;4.00;;;;;;;14.49;51.35;94370.84;5061816;28;20248;-72
2022/05/03 07:53:12;;;;;;;6.70;4.90;;;;;;;14.79;50.19;94370.81;5064218;28;20480;-72
2022/05/03 07:55:38;;;;;;;5.10;4.70;;;;;;;14.74;51.35;94372.53;5063521;28;20178;-72
2022/05/03 07:58:03;;;;;;;5.40;4.70;;;;;;;15.32;50.07;94371.75;5056706;28;20409;-72
2022/05/03 08:00:29;;;;;;;6.03;5.17;;;;;;;15.21;50.20;94367.28;5061567;28;20194;-72
2022/05/03 08:02:54;;;;;;;5.80;5.30;;;;;;;14.77;50.34;94366.81;5059930;28;20190;-73
2022/05/03 08:05:20;;;;;;;5.93;4.40;;;;;;;14.86;50.24;94370.72;5065428;28;20166;-72
2022/05/03 08:07:46;;;;;;;7.70;4.80;;;;;;;14.84;50.49;94375.41;5062285;28;20655;-72
2022/05/03 08:10:12;;;;;;;8.23;5.77;;;;;;;14.92;50.99;94375.06;5062561;28;20196;-71
2022/05/03 08:12:38;;;;;;;5.70;5.10;;;;;;;14.64;51.49;94379.16;5058515;28;20494;-72
2022/05/03 08:15:04;;;;;;;5.00;4.60;;;;;;;14.54;52.68;94393.88;5063490;28;20420;-72
2022/05/03 08:17:31;;;;;;;6.70;4.53;;;;;;;14.29;53.31;94391.41;5064338;28;20183;-72
2022/05/03 08:19:57;;;;;;;4.73;4.33;;;;;;;14.47;54.00;94388.69;5062269;28;20484;-72
2022/05/03 08:22:23;;;;;;;4.47;4.03;;;;;;;14.52;53.76;94394.09;5062153;28;20970;-72
2022/05/03 08:24:48;;;;;;;5.63;4.53;;;;;;;14.49;55.37;94391.91;5064209;28;20432;-72
2022/05/03 08:27:13;;;;;;;5.53;4.23;;;;;;;14.46;54.79;94402.91;5064262;28;20178;-72
2022/05/03 08:29:39;;;;;;;4.50;4.10;;;;;;;14.41;54.91;94400.91;5064283;28;20217;-72
2022/05/03 08:32:05;;;;;;;4.77;4.17;;;;;;;14.38;53.88;94395.28;5063586;28;20198;-72
2022/05/03 08:34:31;;;;;;;4.47;4.17;;;;;;;14.52;54.83;94403.84;5060109;28;20225;-72
2022/05/03 08:42:28;;;;;;;5.20;4.80;;;;;;;14.95;53.85;94403.63;5063413;28;20431;-72
2022/05/03 08:44:53;;;;;;;3.70;3.43;;;;;;;14.94;54.84;94402.00;5064148;28;20416;-73
2022/05/03 08:47:20;;;;;;;4.03;3.63;;;;;;;14.82;54.05;94412.53;5063470;28;20440;-72
2022/05/03 08:50:01;;;;;;;4.67;4.23;;;;;;;15.11;53.11;94409.25;5063543;28;20174;-72
2022/05/03 08:52:29;;;;;;;3.33;3.03;;;;;;;15.08;53.30;94428.13;5064561;28;20448;-72
2022/05/03 08:54:58;;;;;;;3.63;3.43;;;;;;;15.08;53.25;94422.88;5064359;28;20492;-72
2022/05/03 08:57:24;;;;;;;4.43;3.83;;;;;;;15.57;52.87;94412.91;5063545;28;20463;-73
2022/05/03 08:59:50;;;;;;;4.80;3.60;;;;;;;16.17;51.60;94411.78;5064552;28;20421;-71
2022/05/03 09:02:16;;;;;;;4.40;4.00;;;;;;;16.26;51.08;94414.84;5060066;28;20206;-72
2022/05/03 09:04:41;;;;;;;4.50;4.10;;;;;;;16.22;50.75;94416.34;5065363;28;20435;-72
2022/05/03 09:07:23;;;;;;;4.77;3.33;;;;;;;16.45;49.64;94412.81;5064631;28;20198;-72
2022/05/03 09:09:54;;;;;;;3.00;2.80;;;;;;;16.50;49.22;94405.78;5052670;28;20170;-73
2022/05/03 09:12:28;;;;;;;6.60;3.40;;;;;;;16.73;48.95;94404.88;5067556;28;20432;-72
2022/05/03 09:14:59;;;;;;;4.80;3.43;;;;;;;16.48;48.38;94410.50;5064523;28;21021;-73
2022/05/03 09:17:45;;;;;;;3.03;2.83;;;;;;;16.62;48.23;94407.56;5065040;28;20429;-72
2022/05/03 09:25:56;;;;;;;3.17;2.97;;;;;;;17.09;46.32;94412.59;5063090;28;20486;-72
2022/05/03 09:28:22;;;;;;;5.03;3.17;;;;;;;17.29;46.46;94407.63;5063741;28;20413;-72
2022/05/03 09:30:50;;;;;;;2.60;2.40;;;;;;;16.77;46.65;94410.50;5064382;28;20472;-72
2022/05/03 09:33:25;;;;;;;2.53;2.33;;;;;;;15.85;47.41;94409.56;5059804;28;20417;-72
2022/05/03 09:35:51;;;;;;;4.87;2.90;;;;;;;16.65;46.55;94401.81;5063791;28;20491;-73
2022/05/03 09:38:17;;;;;;;3.30;3.00;;;;;;;17.17;45.83;94399.00;5058864;28;20433;-73
2022/05/03 09:40:47;;;;;;;5.67;3.20;;;;;;;16.89;46.00;94397.22;5066387;28;20218;-72
2022/05/03 09:43:14;;;;;;;5.57;3.47;;;;;;;16.88;46.56;94398.25;5058761;28;20197;-72
2022/05/03 09:45:39;;;;;;;4.70;3.20;;;;;;;16.85;47.10;94404.03;5064451;28;20416;-72
2022/05/03 09:48:06;;;;;;;3.70;3.33;;;;;;;16.86;46.66;94398.50;5062632;28;20444;-73
2022/05/03 09:50:46;;;;;;;4.10;3.10;;;;;;;16.82;46.75;94396.56;5057547;28;20408;-73
2022/05/03 09:53:17;;;;;;;5.60;2.90;;;;;;;16.31;47.06;94388.53;5061351;28;20481;-73
2022/05/03 09:55:45;;;;;;;3.60;3.30;;;;;;;16.43;47.27;94394.56;5066735;28;20455;-73
2022/05/03 09:58:12;;;;;;;7.23;2.93;;;;;;;17.04;44.76;94392.19;5066294;28;20447;-73
2022/05/03 10:00:46;;;;;;;3.53;2.60;;;;;;;17.65;44.51;94394.91;5066184;28;20472;-73
2022/05/03 10:03:12;;;;;;;3.87;3.00;;;;;;;17.51;43.88;94383.06;5065574;28;20408;-73
2022/05/03 10:05:41;;;;;;;3.73;2.67;;;;;;;17.45;44.13;94389.34;5066143;28;20417;-73
2022/05/03 10:08:11;;;;;;;3.03;2.60;;;;;;;17.24;43.89;94391.69;5064551;28;20478;-73
2022/05/03 10:10:40;;;;;;;3.10;2.80;;;;;;;16.55;46.15;94392.66;5066943;28;20413;-73
2022/05/03 10:13:05;;;;;;;3.23;2.50;;;;;;;17.01;45.13;94390.00;5066314;28;20436;-73
2022/05/03 10:21:19;;;;;;;3.23;2.83;;;;;;;15.81;47.54;94392.59;5061602;28;20475;-72
2022/05/03 10:24:06;;;;;;;5.40;2.90;;;;;;;15.67;48.79;94389.38;5066174;28;20424;-73
2022/05/03 10:26:58;;;;;;;3.73;3.40;;;;;;;15.36;49.42;94391.34;5066552;28;20922;-72
2022/05/03 10:29:25;;;;;;;2.97;2.70;;;;;;;15.69;47.72;94394.41;5066465;28;20476;-72
2022/05/03 10:32:07;;;;;;;2.77;2.53;;;;;;;15.72;47.02;94396.59;5063625;28;20426;-72
2022/05/03 10:34:47;;;;;;;3.23;2.70;;;;;;;15.65;46.66;94394.09;5049441;28;20418;-72
2022/05/03 10:37:14;;;;;;;5.70;2.70;;;;;;;15.60;46.83;94386.06;5065944;28;20432;-72
2022/05/03 10:39:57;;;;;;;4.10;2.77;;;;;;;15.85;46.55;94387.66;5066543;28;20424;-73
2022/05/03 10:42:31;;;;;;;4.83;2.67;;;;;;;16.10;45.25;94385.50;5065909;28;20472;-73
2022/05/03 10:45:03;;;;;;;4.33;3.00;;;;;;;15.50;47.28;94391.09;5063512;28;20402;-73
2022/05/03 10:47:49;;;;;;;4.03;2.87;;;;;;;15.74;46.29;94387.44;5059036;28;20472;-73
2022/05/03 10:50:17;;;;;;;5.00;3.13;;;;;;;15.77;46.35;94386.19;5057934;28;20484;-73
2022/05/03 10:53:06;;;;;;;3.07;2.87;;;;;;;15.76;46.00;94390.66;5066486;28;20524;-73
2022/05/03 10:55:32;;;;;;;2.97;2.47;;;;;;;16.34;44.19;94388.06;5088653;28;20433;-73
2022/05/03 10:58:20;;;;;;;2.47;2.37;;;;;;;17.18;41.96;94384.72;5064888;28;20421;-73
2022/05/03 11:01:04;;;;;;;3.50;3.30;;;;;;;17.49;41.53;94374.56;5065729;28;20473;-73
2022/05/03 11:03:51;;;;;;;2.80;2.13;;;;;;;17.45;42.02;94376.09;5054114;28;20431;-72
2022/05/03 11:06:19;;;;;;;2.13;1.97;;;;;;;17.84;41.14;94373.44;5044048;28;20433;-73
2022/05/03 11:08:57;;;;;;;1.90;1.80;;;;;;;18.47;40.03;94374.69;5065977;28;20526;-73
2022/05/03 11:11:44;;;;;;;2.57;2.37;;;;;;;19.44;38.04;94371.25;5065276;28;20436;-73
2022/05/03 11:14:22;;;;;;;2.50;2.30;;;;;;;18.71;38.55;94374.41;5065687;28;20472;-73
2022/05/03 11:16:51;;;;;;;2.77;2.63;;;;;;;17.78;40.83;94377.09;5065124;28;20436;-73
2022/05/03 11:19:21;;;;;;;4.00;2.93;;;;;;;17.69;40.20;94369.56;5065851;28;20485;-73
2022/05/03 11:21:49;;;;;;;2.03;1.93;;;;;;;17.48;41.71;94370.34;5063421;28;20666;-73
2022/05/03 11:24:32;;;;;;;2.10;2.00;;;;;;;17.80;41.25;94377.63;5065340;28;20413;-73
2022/05/03 11:27:00;;;;;;;1.90;1.80;;;;;;;18.17;41.35;94379.69;5065932;28;20440;-73
2022/05/03 11:29:30;;;;;;;3.63;2.20;;;;;;;18.96;39.03;94370.38;5064709;28;20534;-72
2022/05/03 11:31:58;;;;;;;4.03;2.20;;;;;;;19.83;36.98;94368.31;5065841;28;20555;-73
2022/05/03 11:34:24;;;;;;;3.23;2.40;;;;;;;19.60;36.88;94362.31;5056206;28;20417;-73
2022/05/03 11:36:50;;;;;;;1.70;1.60;;;;;;;18.70;38.03;94365.66;5065569;28;20488;-73
2022/05/03 11:39:17;;;;;;;2.67;2.00;;;;;;;18.96;39.13;94359.78;5065811;28;20634;-74
2022/05/03 11:41:43;;;;;;;2.10;1.90;;;;;;;18.12;39.79;94367.97;5062973;28;20472;-72
2022/05/03 11:44:09;;;;;;;2.90;2.70;;;;;;;17.70;40.68;94370.34;5065383;28;20419;-72
2022/05/03 11:46:37;;;;;;;2.70;2.50;;;;;;;17.91;39.60;94366.16;5057285;28;20431;-72
2022/05/03 11:49:05;;;;;;;4.17;1.90;;;;;;;17.35;40.42;94364.34;5065281;28;20788;-73
2022/05/03 11:57:37;;;;;;;2.90;2.70;;;;;;;17.48;41.32;94363.19;5065012;28;20443;-72
2022/05/03 12:00:05;;;;;;;2.83;2.63;;;;;;;18.28;38.72;94360.19;5073616;28;20425;-73
2022/05/03 12:02:36;;;;;;;2.90;2.23;;;;;;;18.19;38.37;94359.81;5064707;28;20484;-73
2022/05/03 12:05:05;;;;;;;2.50;2.30;;;;;;;18.39;38.73;94353.16;5063671;28;20471;-73
2022/05/03 12:07:39;;;;;;;2.00;1.90;;;;;;;17.56;39.60;94349.53;5064424;28;20437;-73
2022/05/03 12:10:29;;;;;;;2.00;1.90;;;;;;;17.31;40.28;94344.72;5055806;28;20427;-73
2022/05/03 12:13:08;;;;;;;2.27;2.10;;;;;;;16.73;41.36;94348.56;5051302;28;20500;-72
2022/05/03 12:15:35;;;;;;;2.30;2.20;;;;;;;16.71;42.21;94348.84;5096443;28;20503;-72
2022/05/03 12:18:10;;;;;;;2.47;2.27;;;;;;;15.79;44.75;94357.72;5068176;28;20432;-73
2022/05/03 12:20:59;;;;;;;1.90;1.70;;;;;;;15.56;46.72;94361.19;5064257;28;20444;-72
2022/05/03 12:23:25;;;;;;;3.43;2.40;;;;;;;15.92;47.29;94369.88;5064071;28;20921;-72
2022/05/03 12:25:57;;;;;;;2.13;2.03;;;;;;;15.66;47.67;94374.59;5064659;28;20476;-73
2022/05/03 12:28:36;;;;;;;2.00;1.83;;;;;;;16.05;47.16;94374.88;5064126;28;20412;-73